This is the latest recevied weather packets stored in our database for station/object SR7U-1. If no packets are shown the sender has not sent any weather packets the latest 10 day(s).
| Time | Temp. | Humidity | Pressure | Rain* | Wind** | Luminosity | Snow |
|---|---|---|---|---|---|---|---|
| 1777850033 | 11.11° C | 62% | 1015.5 hPa | - | - | - | - |
| 1777849250 | 11.11° C | 61% | 1015.5 hPa | - | - | - | - |
| 1777848420 | 12.22° C | 57% | 1015.5 hPa | - | - | - | - |
| 1777847575 | 12.22° C | 55% | 1015.5 hPa | - | - | - | - |
| 1777846710 | 11.67° C | 54% | 1015.4 hPa | - | - | - | - |
| 1777845895 | 11.11° C | 60% | 1015.5 hPa | - | - | - | - |
| 1777845155 | 12.78° C | 51% | 1015.6 hPa | - | - | - | - |
| 1777844282 | 13.89° C | 50% | 1015.6 hPa | - | - | - | - |
| 1777843385 | 16.67° C | 41% | 1015.4 hPa | - | - | - | - |
| 1777842490 | 17.22° C | 39% | 1015.3 hPa | - | - | - | - |
| 1777841660 | 17.22° C | 38% | 1015.3 hPa | - | - | - | - |
| 1777840820 | 16.67° C | 37% | 1015.2 hPa | - | - | - | - |
| 1777839970 | 17.78° C | 37% | 1015.1 hPa | - | - | - | - |
| 1777839182 | 18.33° C | 35% | 1015.2 hPa | - | - | - | - |
| 1777838305 | 18.33° C | 35% | 1015.2 hPa | - | - | - | - |
| 1777837510 | 19.44° C | 33% | 1015.1 hPa | - | - | - | - |
| 1777836760 | 19.44° C | 33% | 1015.2 hPa | - | - | - | - |
| 1777835889 | 20° C | 32% | 1015.2 hPa | - | - | - | - |
| 1777835075 | 20° C | 31% | 1015.1 hPa | - | - | - | - |
| 1777834338 | 20° C | 31% | 1015.2 hPa | - | - | - | - |
| 1777833617 | 20° C | 31% | 1015.1 hPa | - | - | - | - |
| 1777832785 | 20.56° C | 32% | 1015 hPa | - | - | - | - |
| 1777831935 | 21.11° C | 31% | 1015 hPa | - | - | - | - |
| 1777831105 | 20.56° C | 31% | 1014.9 hPa | - | - | - | - |
| 1777830375 | 21.11° C | 30% | 1014.8 hPa | - | - | - | - |
* Rain since midnight (hover to see other rain measurements)
** Current wind speed in m/s (hover to see current wind gust speed)